Time;durP1;ratioP1;P1;durP2;ratioP2;P2;SDS_P1;SDS_P2;PMS_P1;PMS_P2;Temp;Humidity;BMP_temperature;BMP_pressure;BME280_temperature;BME280_humidity;BME280_pressure;Samples;Min_cycle;Max_cycle;Signal;HPM_P1;HPM_P2
2022/11/05 00:10:59;;;;;;;4.25;2.53;;;9.30;99.90;;;;;;5072728;28;20125;-79
2022/11/05 00:19:08;;;;;;;4.85;2.45;;;9.40;99.90;;;;;;5072230;28;20503;-79
2022/11/05 00:27:05;;;;;;;3.38;2.90;;;9.40;99.90;;;;;;5072654;28;20496;-79
2022/11/05 00:29:31;;;;;;;4.30;2.70;;;9.50;99.90;;;;;;5072655;28;20043;-79
2022/11/05 00:31:56;;;;;;;3.38;2.60;;;9.70;99.90;;;;;;5072661;28;20477;-79
2022/11/05 00:34:22;;;;;;;4.45;2.50;;;9.40;99.90;;;;;;5072283;28;20040;-79
2022/11/05 00:36:48;;;;;;;4.05;2.90;;;9.50;99.90;;;;;;5071786;28;20476;-79
2022/11/05 00:39:13;;;;;;;3.30;2.78;;;9.70;99.90;;;;;;5072182;28;20404;-79
2022/11/05 00:41:39;;;;;;;4.10;3.17;;;9.60;99.90;;;;;;5072115;28;20035;-79
2022/11/05 00:46:48;;;;;;;2.75;2.10;;;9.40;99.90;;;;;;5072159;28;20081;-78
2022/11/05 00:49:29;;;;;;;2.90;2.38;;;9.50;99.90;;;;;;5071528;28;20104;-78
2022/11/05 00:54:39;;;;;;;3.83;2.63;;;9.50;99.90;;;;;;5072214;28;20405;-79
2022/11/05 00:57:04;;;;;;;3.75;2.88;;;9.60;99.90;;;;;;5072101;28;20025;-79
2022/11/05 00:59:30;;;;;;;3.63;2.40;;;9.60;99.90;;;;;;5072503;28;20100;-79
2022/11/05 01:01:55;;;;;;;3.38;2.47;;;9.90;99.90;;;;;;5072616;28;20476;-79
2022/11/05 01:04:21;;;;;;;3.88;2.60;;;9.60;99.90;;;;;;5072255;28;20032;-79
2022/11/05 01:06:47;;;;;;;4.03;2.63;;;9.60;99.90;;;;;;5071960;28;20025;-78
2022/11/05 01:09:12;;;;;;;3.10;2.55;;;9.50;99.90;;;;;;5071997;28;20085;-79
2022/11/05 01:11:40;;;;;;;4.22;2.65;;;9.40;99.90;;;;;;5070885;28;20032;-79
2022/11/05 01:14:12;;;;;;;4.20;2.58;;;9.50;99.90;;;;;;5071792;28;20107;-79
2022/11/05 01:16:38;;;;;;;3.58;2.80;;;9.40;99.90;;;;;;5072665;28;20028;-79
2022/11/05 01:19:05;;;;;;;3.88;2.80;;;9.60;99.90;;;;;;5071483;28;20108;-79
2022/11/05 01:21:32;;;;;;;6.55;3.97;;;9.70;99.90;;;;;;5071906;28;20024;-79
2022/11/05 01:23:57;;;;;;;6.95;4.07;;;9.60;99.90;;;;;;5071973;28;20120;-79
2022/11/05 01:26:23;;;;;;;4.80;3.35;;;9.50;99.90;;;;;;5071706;28;20112;-79
2022/11/05 01:28:54;;;;;;;7.30;3.25;;;9.70;99.90;;;;;;5072278;28;20362;-78
2022/11/05 01:31:20;;;;;;;3.60;2.70;;;9.50;99.90;;;;;;5071865;28;20448;-79
2022/11/05 01:33:46;;;;;;;3.50;2.60;;;9.60;99.90;;;;;;5071067;28;20047;-78
2022/11/05 01:36:11;;;;;;;4.45;2.58;;;9.70;99.90;;;;;;5075079;28;20048;-80
2022/11/05 01:38:37;;;;;;;3.03;2.40;;;9.50;99.90;;;;;;5075483;28;20036;-79
2022/11/05 01:41:03;;;;;;;2.67;2.17;;;9.50;99.90;;;;;;5075602;28;20040;-79
2022/11/05 01:43:51;;;;;;;3.03;2.42;;;9.60;99.90;;;;;;5075555;28;20469;-79
2022/11/05 01:46:41;;;;;;;4.43;2.42;;;9.60;99.90;;;;;;5075220;28;20370;-79
2022/11/05 01:49:28;;;;;;;2.63;2.42;;;9.60;99.90;;;;;;5074593;28;20021;-79
2022/11/05 01:51:54;;;;;;;2.72;2.50;;;9.50;99.90;;;;;;5075353;28;20116;-79
2022/11/05 01:54:26;;;;;;;2.97;2.60;;;9.40;99.90;;;;;;5075020;28;20048;-79
2022/11/05 01:56:58;;;;;;;3.03;2.45;;;9.60;99.90;;;;;;5075064;28;20041;-79
2022/11/05 01:59:31;;;;;;;4.40;2.38;;;9.30;99.90;;;;;;5075454;28;20078;-79
2022/11/05 02:01:57;;;;;;;4.10;2.22;;;9.60;99.90;;;;;;5075119;28;20082;-78
2022/11/05 02:04:34;;;;;;;2.85;2.40;;;9.40;99.90;;;;;;5074772;28;20040;-78
2022/11/05 02:07:01;;;;;;;4.07;2.30;;;9.50;99.90;;;;;;5075011;28;20052;-79
2022/11/05 02:09:48;;;;;;;5.93;2.50;;;9.70;99.90;;;;;;5075339;28;20476;-79
2022/11/05 02:12:14;;;;;;;2.70;2.28;;;9.70;99.90;;;;;;5074672;28;20028;-79
2022/11/05 02:14:40;;;;;;;2.75;2.47;;;9.50;99.90;;;;;;5073523;28;20043;-79
2022/11/05 02:17:23;;;;;;;6.82;2.75;;;9.40;99.90;;;;;;5073459;28;20020;-79
2022/11/05 02:20:22;;;;;;;5.10;2.60;;;9.40;99.90;;;;;;5074923;28;20077;-78
2022/11/05 02:23:18;;;;;;;5.00;2.17;;;9.40;99.90;;;;;;4973965;28;20482;-78
2022/11/05 02:26:02;;;;;;;4.35;2.50;;;9.40;99.90;;;;;;4973199;28;20039;-79
2022/11/05 02:28:36;;;;;;;4.55;2.45;;;9.40;99.90;;;;;;4974274;28;20113;-78
2022/11/05 02:31:34;;;;;;;4.97;2.53;;;9.40;99.90;;;;;;4973178;28;20375;-79
2022/11/05 02:34:27;;;;;;;4.20;2.90;;;9.40;99.90;;;;;;4956927;28;20039;-79
2022/11/05 02:37:10;;;;;;;3.55;2.45;;;9.40;99.90;;;;;;4957264;28;20479;-78
2022/11/05 02:39:49;;;;;;;6.30;2.75;;;9.40;99.90;;;;;;4973533;28;20130;-79
2022/11/05 02:42:41;;;;;;;5.13;2.80;;;9.40;99.90;;;;;;4973758;28;20038;-78
2022/11/05 02:45:39;;;;;;;5.03;3.10;;;9.40;99.90;;;;;;4934251;29;20044;-78
2022/11/05 02:48:35;;;;;;;4.78;2.92;;;9.40;99.90;;;;;;4934751;29;20485;-78
2022/11/05 02:51:11;;;;;;;5.60;3.17;;;9.40;99.90;;;;;;4934717;29;20044;-78
2022/11/05 02:54:09;;;;;;;7.93;3.38;;;9.50;99.90;;;;;;4935032;29;20390;-80
2022/11/05 02:56:39;;;;;;;5.45;3.50;;;9.50;99.90;;;;;;4934979;29;20141;-79
2022/11/05 02:59:05;;;;;;;4.38;3.58;;;9.50;99.90;;;;;;5011071;28;20557;-79
2022/11/05 03:01:30;;;;;;;6.63;3.65;;;9.40;99.90;;;;;;5031350;28;20507;-79
2022/11/05 03:03:59;;;;;;;9.02;3.38;;;9.40;99.90;;;;;;5031852;28;20044;-79
2022/11/05 03:07:06;;;;;;;5.10;3.58;;;9.40;99.90;;;;;;5031676;28;20469;-79
2022/11/05 03:10:04;;;;;;;6.32;3.40;;;9.50;99.90;;;;;;5023983;28;20041;-79
2022/11/05 03:13:02;;;;;;;4.85;3.40;;;9.50;99.90;;;;;;5031872;28;20025;-78
2022/11/05 03:15:39;;;;;;;6.13;3.78;;;9.50;99.90;;;;;;5031314;28;20041;-79
2022/11/05 03:18:11;;;;;;;5.63;3.70;;;9.50;99.90;;;;;;5031615;28;20037;-79
2022/11/05 03:20:50;;;;;;;6.57;3.70;;;9.40;99.90;;;;;;5031294;28;20034;-79
2022/11/05 03:24:09;;;;;;;5.65;3.95;;;9.40;99.90;;;;;;5073593;28;20020;-79
2022/11/05 03:26:41;;;;;;;8.20;4.35;;;9.50;99.90;;;;;;4972457;28;20030;-79
2022/11/05 03:29:22;;;;;;;6.90;4.20;;;9.50;99.90;;;;;;4972257;28;20023;-79
2022/11/05 03:31:50;;;;;;;5.97;4.50;;;9.50;99.90;;;;;;4972276;28;20054;-79
2022/11/05 03:34:20;;;;;;;4.55;3.70;;;9.60;99.90;;;;;;4971929;28;20043;-79
2022/11/05 03:36:53;;;;;;;4.78;3.60;;;9.50;99.90;;;;;;4972073;28;20097;-78
2022/11/05 03:39:50;;;;;;;5.95;3.97;;;9.50;99.90;;;;;;4972672;28;20038;-79
2022/11/05 03:42:19;;;;;;;6.13;4.05;;;9.70;99.90;;;;;;4964535;28;20042;-79
2022/11/05 03:44:50;;;;;;;6.80;4.00;;;9.70;99.90;;;;;;4971930;28;20053;-78
2022/11/05 03:47:23;;;;;;;5.55;3.85;;;9.60;99.90;;;;;;4971995;28;20052;-79
2022/11/05 03:50:14;;;;;;;6.78;3.75;;;9.60;99.90;;;;;;4972252;28;20082;-79
2022/11/05 03:52:58;;;;;;;6.30;3.88;;;9.50;99.90;;;;;;4971659;28;20391;-79
2022/11/05 03:55:30;;;;;;;6.55;3.92;;;9.60;99.90;;;;;;4971883;28;20038;-79
2022/11/05 03:57:57;;;;;;;7.35;4.00;;;9.50;99.90;;;;;;5039798;28;20033;-79
2022/11/05 04:00:23;;;;;;;6.88;3.90;;;9.60;99.90;;;;;;5053210;28;20028;-79
2022/11/05 04:02:48;;;;;;;5.80;3.85;;;9.90;99.90;;;;;;5053422;28;20393;-79
2022/11/05 04:05:14;;;;;;;6.10;4.40;;;9.70;99.90;;;;;;5053005;28;20020;-79
2022/11/05 04:13:30;;;;;;;6.05;3.83;;;9.70;99.90;;;;;;5030369;28;20025;-79
2022/11/05 04:18:41;;;;;;;7.07;4.30;;;9.60;99.90;;;;;;5030391;28;20583;-79
2022/11/05 04:24:07;;;;;;;7.07;4.53;;;9.70;99.90;;;;;;5030389;28;20056;-79
2022/11/05 04:26:38;;;;;;;6.68;4.63;;;10.00;99.90;;;;;;5030219;28;20029;-79
2022/11/05 04:31:48;;;;;;;9.18;4.97;;;9.90;99.90;;;;;;5030674;28;20469;-79
2022/11/05 04:34:15;;;;;;;9.07;4.80;;;9.80;99.90;;;;;;5025605;28;20034;-79
2022/11/05 04:36:41;;;;;;;7.93;4.60;;;9.60;99.90;;;;;;5010571;28;20096;-79
2022/11/05 04:39:07;;;;;;;7.53;5.10;;;9.60;99.90;;;;;;5010515;28;20026;-79
2022/11/05 04:41:32;;;;;;;8.55;5.22;;;9.70;99.90;;;;;;5010561;28;20225;-79
2022/11/05 04:43:58;;;;;;;6.75;4.97;;;9.70;99.90;;;;;;5025909;28;20041;-78
2022/11/05 04:46:24;;;;;;;9.07;5.00;;;9.80;99.90;;;;;;5052053;28;20025;-79
2022/11/05 04:48:49;;;;;;;6.78;4.75;;;9.70;99.90;;;;;;5052520;28;20095;-78
2022/11/05 04:51:15;;;;;;;7.40;5.20;;;10.20;99.90;;;;;;5052494;28;20029;-79
2022/11/05 04:53:41;;;;;;;6.47;5.10;;;10.00;99.90;;;;;;5052203;28;20036;-79
2022/11/05 04:56:21;;;;;;;9.10;5.35;;;9.80;99.90;;;;;;5051956;28;20036;-79
2022/11/05 04:58:47;;;;;;;9.95;5.47;;;9.80;99.90;;;;;;5051999;28;20048;-79
2022/11/05 05:01:14;;;;;;;8.93;5.45;;;9.80;99.90;;;;;;5052175;28;20036;-79
2022/11/05 05:03:40;;;;;;;6.05;5.20;;;9.80;99.90;;;;;;5051816;28;20067;-79
2022/11/05 05:06:06;;;;;;;8.68;6.13;;;9.90;99.90;;;;;;5052465;28;20048;-79
2022/11/05 05:08:31;;;;;;;7.57;5.40;;;9.70;99.90;;;;;;5052683;28;20474;-79
2022/11/05 05:11:02;;;;;;;9.93;5.82;;;9.70;99.90;;;;;;5055621;28;20013;-79
2022/11/05 05:13:28;;;;;;;7.28;5.70;;;9.70;99.90;;;;;;5055875;28;20029;-79
2022/11/05 05:15:53;;;;;;;10.27;5.97;;;9.80;99.90;;;;;;5056290;28;20085;-79
2022/11/05 05:18:19;;;;;;;8.00;5.70;;;9.70;99.90;;;;;;5055630;28;20028;-78
2022/11/05 05:23:29;;;;;;;9.23;5.82;;;9.80;99.90;;;;;;5055641;28;20071;-79
2022/11/05 05:25:58;;;;;;;7.63;5.88;;;9.80;99.90;;;;;;5055197;28;20064;-79
2022/11/05 05:28:23;;;;;;;6.38;5.70;;;9.80;99.90;;;;;;5055899;28;20489;-79
2022/11/05 05:30:49;;;;;;;8.40;6.03;;;9.80;99.90;;;;;;5055427;28;20031;-79
2022/11/05 05:33:14;;;;;;;6.60;5.57;;;9.60;99.90;;;;;;5072561;28;20021;-79
2022/11/05 05:35:40;;;;;;;10.27;5.25;;;9.80;99.90;;;;;;5089446;28;20060;-79
2022/11/05 05:38:06;;;;;;;6.90;5.35;;;9.80;99.90;;;;;;5095999;28;20024;-79
2022/11/05 05:40:31;;;;;;;8.13;6.18;;;9.70;99.90;;;;;;5095242;28;20024;-79
2022/11/05 05:42:57;;;;;;;8.43;5.75;;;9.70;99.90;;;;;;5096092;28;20024;-79
2022/11/05 05:45:22;;;;;;;8.98;5.70;;;9.70;99.90;;;;;;5095470;28;20020;-79
2022/11/05 05:47:48;;;;;;;10.20;6.13;;;9.70;99.90;;;;;;5095801;28;20024;-79
2022/11/05 05:50:14;;;;;;;7.35;5.93;;;9.60;99.90;;;;;;5096078;28;20438;-79
2022/11/05 05:52:39;;;;;;;9.57;6.13;;;9.60;99.90;;;;;;5095984;28;20115;-79
2022/11/05 05:55:05;;;;;;;7.15;6.40;;;9.60;99.90;;;;;;5095289;28;20070;-79
2022/11/05 05:57:31;;;;;;;8.68;6.07;;;9.70;99.90;;;;;;5095380;28;20488;-79
2022/11/05 05:59:56;;;;;;;10.15;6.95;;;9.80;99.90;;;;;;5095206;28;20031;-79
2022/11/05 06:02:22;;;;;;;6.57;5.93;;;9.70;99.90;;;;;;5095670;28;20384;-79
2022/11/05 06:04:47;;;;;;;8.90;6.07;;;9.70;99.90;;;;;;5095412;28;20079;-79
2022/11/05 06:07:13;;;;;;;10.43;6.72;;;9.70;99.90;;;;;;5077190;28;20020;-79
2022/11/05 06:09:38;;;;;;;8.13;6.50;;;9.70;99.90;;;;;;5094531;28;20028;-79
2022/11/05 06:12:04;;;;;;;7.82;6.70;;;9.80;99.90;;;;;;5095281;28;20027;-79
2022/11/05 06:14:30;;;;;;;9.68;7.30;;;9.70;99.90;;;;;;5094971;28;20044;-79
2022/11/05 06:16:56;;;;;;;8.60;6.72;;;9.80;99.90;;;;;;5095182;28;20031;-79
2022/11/05 06:19:21;;;;;;;9.18;6.55;;;9.70;99.90;;;;;;5095304;28;20035;-78
2022/11/05 06:21:47;;;;;;;8.73;6.53;;;9.80;99.90;;;;;;5094340;28;20027;-79
2022/11/05 06:24:12;;;;;;;9.15;6.95;;;9.80;99.90;;;;;;5094976;28;20032;-79
2022/11/05 06:26:41;;;;;;;10.07;6.80;;;9.80;99.90;;;;;;5094974;28;20020;-79
2022/11/05 06:29:09;;;;;;;9.98;7.00;;;9.80;99.90;;;;;;5094760;28;20031;-79
2022/11/05 06:31:35;;;;;;;10.05;6.88;;;9.80;99.90;;;;;;5091955;28;20021;-79
2022/11/05 06:34:01;;;;;;;9.48;6.63;;;9.90;99.90;;;;;;5074181;28;20109;-79
2022/11/05 06:36:27;;;;;;;8.65;6.93;;;9.80;99.90;;;;;;5094466;28;20046;-79
2022/11/05 06:38:52;;;;;;;8.35;7.18;;;9.80;99.90;;;;;;5094962;28;20462;-79
2022/11/05 06:41:18;;;;;;;11.27;6.50;;;9.70;99.90;;;;;;5094396;28;20020;-79
2022/11/05 06:43:43;;;;;;;9.40;6.72;;;9.90;99.90;;;;;;5093768;28;20016;-80
2022/11/05 06:46:10;;;;;;;9.90;7.30;;;9.90;99.90;;;;;;5094592;28;20392;-78
2022/11/05 06:48:35;;;;;;;9.15;6.50;;;10.20;99.90;;;;;;5095208;28;20028;-78
2022/11/05 06:51:02;;;;;;;11.05;7.25;;;10.00;99.90;;;;;;5094554;28;20035;-79
2022/11/05 06:53:27;;;;;;;9.05;6.75;;;10.10;99.90;;;;;;5095069;28;20031;-79
2022/11/05 06:55:53;;;;;;;9.23;7.05;;;10.20;99.90;;;;;;5094231;28;20408;-79
2022/11/05 06:58:19;;;;;;;9.07;6.30;;;10.00;99.90;;;;;;5094435;28;20557;-79
2022/11/05 07:00:45;;;;;;;8.60;7.25;;;10.50;99.90;;;;;;5094009;28;20516;-78
2022/11/05 07:03:11;;;;;;;10.85;7.03;;;10.10;99.90;;;;;;5094795;28;20475;-79
2022/11/05 07:05:40;;;;;;;11.05;6.60;;;10.10;99.90;;;;;;5093740;28;20024;-78
2022/11/05 07:08:05;;;;;;;12.30;7.25;;;10.20;99.90;;;;;;5093478;28;20085;-79
2022/11/05 07:10:31;;;;;;;10.25;6.45;;;10.10;99.90;;;;;;5093559;28;20024;-80
2022/11/05 07:12:57;;;;;;;11.63;7.05;;;10.00;99.90;;;;;;5094262;28;20024;-80
2022/11/05 07:15:22;;;;;;;10.85;6.22;;;10.30;99.90;;;;;;5094447;28;20406;-81
2022/11/05 07:17:48;;;;;;;10.88;6.78;;;10.50;99.90;;;;;;5093372;28;20104;-81
2022/11/05 07:20:13;;;;;;;8.63;6.03;;;10.40;99.90;;;;;;5094070;28;20035;-80
2022/11/05 07:22:39;;;;;;;8.25;6.20;;;10.60;99.90;;;;;;5058490;28;20017;-80
2022/11/05 07:25:05;;;;;;;6.75;5.28;;;10.30;99.90;;;;;;5093546;28;20028;-80
2022/11/05 07:27:37;;;;;;;9.90;5.70;;;10.40;99.90;;;;;;5094038;28;20028;-81
2022/11/05 07:30:03;;;;;;;6.95;5.57;;;10.70;99.90;;;;;;5093763;28;20433;-86
2022/11/05 07:32:28;;;;;;;8.90;5.65;;;10.50;99.90;;;;;;5093180;28;20392;-81
2022/11/05 07:34:54;;;;;;;9.73;5.80;;;10.50;99.90;;;;;;5092958;28;20047;-81
2022/11/05 07:37:19;;;;;;;7.95;5.30;;;10.50;99.90;;;;;;5093051;28;20380;-81
2022/11/05 07:39:45;;;;;;;9.15;5.22;;;10.70;99.90;;;;;;5093864;28;20028;-81
2022/11/05 07:42:12;;;;;;;8.73;5.75;;;10.70;99.90;;;;;;5093296;28;20026;-81
2022/11/05 07:44:38;;;;;;;6.00;5.40;;;10.70;99.90;;;;;;5093277;28;20102;-81
2022/11/05 07:47:03;;;;;;;10.68;5.65;;;10.70;99.90;;;;;;5093028;28;20154;-82
2022/11/05 07:49:29;;;;;;;7.75;5.10;;;10.90;99.90;;;;;;5093338;28;20476;-80
2022/11/05 07:51:54;;;;;;;10.10;6.03;;;10.90;99.90;;;;;;5092822;28;20035;-80
2022/11/05 07:54:25;;;;;;;8.75;5.95;;;10.90;99.90;;;;;;5092972;28;20036;-79
2022/11/05 07:56:50;;;;;;;9.75;6.30;;;10.90;99.90;;;;;;5093171;28;20205;-79
2022/11/05 07:59:16;;;;;;;8.93;5.47;;;11.30;99.90;;;;;;5075387;28;20032;-80
2022/11/05 08:01:41;;;;;;;8.98;5.10;;;11.90;99.90;;;;;;5093519;28;20093;-80
2022/11/05 08:04:07;;;;;;;7.75;4.57;;;13.70;99.90;;;;;;5057983;28;20031;-80
2022/11/05 08:06:33;;;;;;;8.52;4.20;;;16.30;99.90;;;;;;5092996;28;20032;-80
2022/11/05 08:08:58;;;;;;;4.88;3.85;;;20.40;99.90;;;;;;5093641;28;20550;-80
2022/11/05 08:11:24;;;;;;;5.93;3.17;;;21.80;99.90;;;;;;5092865;28;20028;-80
2022/11/05 08:13:49;;;;;;;6.38;3.78;;;21.70;99.90;;;;;;5092834;28;20028;-80
2022/11/05 08:16:15;;;;;;;6.97;3.67;;;23.70;99.90;;;;;;5092651;28;20073;-80
2022/11/05 08:18:40;;;;;;;4.95;3.10;;;24.80;99.90;;;;;;5092613;28;20020;-80
2022/11/05 08:21:07;;;;;;;6.35;4.20;;;24.50;99.90;;;;;;5092705;28;20102;-80
2022/11/05 08:23:33;;;;;;;3.85;3.22;;;20.50;99.90;;;;;;5093062;28;20027;-80
2022/11/05 08:26:02;;;;;;;4.32;3.17;;;21.10;99.90;;;;;;5092019;28;20028;-80
2022/11/05 08:28:28;;;;;;;6.57;3.22;;;22.60;99.90;;;;;;5092910;28;20046;-80
2022/11/05 08:30:55;;;;;;;5.80;3.70;;;22.70;99.90;;;;;;5092408;28;20024;-80
2022/11/05 08:33:22;;;;;;;4.13;2.85;;;21.90;99.90;;;;;;5092105;28;20028;-80
2022/11/05 08:35:48;;;;;;;6.80;3.58;;;24.90;99.90;;;;;;5092290;28;20044;-80
2022/11/05 08:38:16;;;;;;;5.75;3.88;;;21.90;99.90;;;;;;5092504;28;20031;-80
2022/11/05 08:40:44;;;;;;;6.90;3.90;;;18.00;99.90;;;;;;5093046;28;20103;-80
2022/11/05 08:43:11;;;;;;;5.30;4.18;;;15.30;99.90;;;;;;5092282;28;20031;-80
2022/11/05 08:45:38;;;;;;;8.68;4.40;;;14.10;99.90;;;;;;5092183;28;20044;-80
2022/11/05 08:48:06;;;;;;;6.63;4.60;;;13.20;99.90;;;;;;5091885;28;20028;-80
2022/11/05 08:50:32;;;;;;;5.85;4.35;;;12.60;99.90;;;;;;5092311;28;20020;-80
2022/11/05 08:52:58;;;;;;;5.60;3.90;;;13.70;99.90;;;;;;5092073;28;20101;-80
2022/11/05 08:55:25;;;;;;;8.18;4.40;;;15.60;99.90;;;;;;5092432;28;20044;-80
2022/11/05 08:57:58;;;;;;;5.80;3.70;;;16.40;99.90;;;;;;5092305;28;20020;-80
2022/11/05 09:00:25;;;;;;;5.68;4.07;;;18.00;99.90;;;;;;5092126;28;20024;-80
2022/11/05 09:02:51;;;;;;;4.80;3.20;;;20.20;99.90;;;;;;5091870;28;20035;-80
2022/11/05 09:05:16;;;;;;;6.95;3.13;;;24.10;99.90;;;;;;5092791;28;20111;-80
2022/11/05 09:07:42;;;;;;;5.68;3.40;;;26.60;99.90;;;;;;5092317;28;20032;-80
2022/11/05 09:10:08;;;;;;;6.70;3.53;;;27.90;99.90;;;;;;5092353;28;20471;-80
2022/11/05 09:12:33;;;;;;;5.40;3.50;;;26.10;99.90;;;;;;5091992;28;20096;-80
2022/11/05 09:14:59;;;;;;;4.75;3.53;;;23.90;99.90;;;;;;5092073;28;20035;-80
2022/11/05 09:17:24;;;;;;;6.22;3.63;;;20.40;99.90;;;;;;5092116;28;20445;-80
2022/11/05 09:19:50;;;;;;;6.28;3.63;;;19.20;99.90;;;;;;5092542;28;20020;-80
2022/11/05 09:22:16;;;;;;;5.57;3.50;;;19.10;99.90;;;;;;5091932;28;20081;-80
2022/11/05 09:24:42;;;;;;;6.03;3.33;;;21.10;99.90;;;;;;5092163;28;20241;-80
2022/11/05 09:27:14;;;;;;;5.97;3.45;;;19.50;99.90;;;;;;5092631;28;20052;-80
2022/11/05 09:29:41;;;;;;;5.93;3.30;;;18.00;99.90;;;;;;5092822;28;20020;-80
2022/11/05 09:32:07;;;;;;;5.63;3.30;;;18.20;99.90;;;;;;5091746;28;20020;-80
2022/11/05 09:34:33;;;;;;;4.88;3.50;;;17.00;99.90;;;;;;5091398;28;20127;-80
2022/11/05 09:36:59;;;;;;;6.10;3.53;;;16.10;99.90;;;;;;5092238;28;20114;-80
2022/11/05 09:39:24;;;;;;;5.38;3.40;;;15.30;99.90;;;;;;5092064;28;20028;-80
2022/11/05 09:42:13;;;;;;;7.40;3.60;;;16.90;99.90;;;;;;5092661;28;20043;-80
2022/11/05 09:44:51;;;;;;;5.25;3.00;;;20.90;99.90;;;;;;5091744;28;20107;-80
2022/11/05 09:47:24;;;;;;;7.15;2.97;;;20.50;99.90;;;;;;5091636;28;20039;-80
2022/11/05 09:49:53;;;;;;;3.80;2.70;;;18.80;99.90;;;;;;5092484;28;20522;-80
2022/11/05 09:52:31;;;;;;;4.03;2.83;;;18.30;99.90;;;;;;5091765;28;20052;-80
2022/11/05 09:54:57;;;;;;;4.38;2.80;;;16.90;99.90;;;;;;5091767;28;20102;-80
2022/11/05 09:57:36;;;;;;;4.10;2.63;;;18.30;99.90;;;;;;5095379;28;20349;-80
2022/11/05 10:00:06;;;;;;;3.45;2.40;;;17.70;99.90;;;;;;5095462;28;20024;-80
2022/11/05 10:02:40;;;;;;;5.88;2.70;;;17.30;99.90;;;;;;5095360;28;20484;-80
2022/11/05 10:05:10;;;;;;;4.50;2.63;;;17.70;99.90;;;;;;5095201;28;20054;-80
2022/11/05 10:07:57;;;;;;;5.43;2.80;;;24.20;99.90;;;;;;5095010;28;20027;-80
2022/11/05 10:10:36;;;;;;;5.30;3.15;;;27.30;99.90;;;;;;5095356;28;20050;-80
2022/11/05 10:13:10;;;;;;;7.32;2.70;;;21.30;99.90;;;;;;5095024;28;20384;-80
2022/11/05 10:15:41;;;;;;;3.97;2.47;;;19.30;99.90;;;;;;5094535;28;20032;-80
2022/11/05 10:18:17;;;;;;;8.02;2.28;;;19.90;99.90;;;;;;5094978;28;20393;-80
2022/11/05 10:20:44;;;;;;;5.70;2.70;;;18.20;99.90;;;;;;5095079;28;20028;-80
2022/11/05 10:23:13;;;;;;;3.80;2.60;;;22.50;99.90;;;;;;5095466;28;20032;-80
2022/11/05 10:25:43;;;;;;;2.88;2.30;;;21.30;99.90;;;;;;5095050;28;20020;-80
2022/11/05 10:28:15;;;;;;;4.22;2.45;;;18.50;99.90;;;;;;5094935;28;20020;-80
2022/11/05 10:30:43;;;;;;;5.07;2.40;;;16.70;99.90;;;;;;5094402;28;20032;-81
2022/11/05 10:33:11;;;;;;;4.85;2.63;;;15.60;99.90;;;;;;5094568;28;20032;-80
2022/11/05 10:35:50;;;;;;;3.03;2.15;;;16.80;99.90;;;;;;5094415;28;20055;-80
2022/11/05 10:38:15;;;;;;;3.22;2.03;;;22.20;99.90;;;;;;5095169;28;20024;-80
2022/11/05 10:41:13;;;;;;;3.67;2.13;;;24.00;99.90;;;;;;5094612;28;20043;-80
2022/11/05 10:43:53;;;;;;;5.13;2.25;;;24.50;99.90;;;;;;5094496;28;20082;-80
2022/11/05 10:46:39;;;;;;;5.05;2.35;;;21.30;99.90;;;;;;5094561;28;20119;-80
2022/11/05 10:49:17;;;;;;;2.83;1.67;;;23.90;99.90;;;;;;5094323;28;20380;-80
2022/11/05 10:51:45;;;;;;;5.63;2.30;;;26.40;99.90;;;;;;5094432;28;20024;-80
2022/11/05 10:54:17;;;;;;;3.08;1.73;;;28.70;99.90;;;;;;5076483;28;20085;-81
2022/11/05 10:56:43;;;;;;;2.45;1.65;;;29.50;99.90;;;;;;5094706;28;20446;-80
2022/11/05 10:59:29;;;;;;;6.22;1.90;;;29.30;99.90;;;;;;5093833;28;20032;-80
2022/11/05 11:02:21;;;;;;;2.85;1.52;;;25.90;99.90;;;;;;5094709;28;20081;-81
2022/11/05 11:04:56;;;;;;;3.05;1.65;;;26.20;99.90;;;;;;5094377;28;20020;-80
2022/11/05 11:07:24;;;;;;;2.90;1.58;;;29.70;99.90;;;;;;5093670;28;20026;-80
2022/11/05 11:09:51;;;;;;;2.67;1.77;;;29.40;99.90;;;;;;5093776;28;20024;-81
2022/11/05 11:12:23;;;;;;;3.40;1.65;;;29.10;99.90;;;;;;5093849;28;20035;-81
2022/11/05 11:15:02;;;;;;;4.68;1.67;;;29.90;99.90;;;;;;5093725;28;20127;-81
2022/11/05 11:17:30;;;;;;;4.65;2.10;;;28.50;99.90;;;;;;5094758;28;20044;-81
2022/11/05 11:20:20;;;;;;;3.05;1.90;;;27.10;99.90;;;;;;5075862;28;20082;-80
2022/11/05 11:23:12;;;;;;;3.13;1.80;;;27.40;99.90;;;;;;5094375;28;20027;-80
2022/11/05 11:25:47;;;;;;;3.35;1.90;;;28.70;99.90;;;;;;5094310;28;20020;-81
2022/11/05 11:28:28;;;;;;;5.30;2.08;;;24.40;99.90;;;;;;5093607;28;20035;-80
2022/11/05 11:31:14;;;;;;;4.22;2.00;;;22.50;99.90;;;;;;5093553;28;20020;-80
2022/11/05 11:33:43;;;;;;;3.95;1.90;;;19.20;99.90;;;;;;5073232;28;20427;-79
2022/11/05 11:36:10;;;;;;;3.83;1.98;;;17.80;99.90;;;;;;5072778;28;20057;-80
2022/11/05 11:38:37;;;;;;;5.10;2.38;;;21.00;99.90;;;;;;5073546;28;20025;-80
2022/11/05 11:41:24;;;;;;;3.50;2.17;;;22.10;99.90;;;;;;5073510;28;20025;-80
2022/11/05 11:43:55;;;;;;;3.17;1.95;;;19.40;99.90;;;;;;5072712;28;20065;-80
2022/11/05 11:46:21;;;;;;;3.45;1.70;;;18.10;99.90;;;;;;5073138;28;20495;-80
2022/11/05 11:48:48;;;;;;;3.63;2.15;;;16.70;99.90;;;;;;5073227;28;20024;-80
2022/11/05 11:51:35;;;;;;;3.13;2.60;;;16.00;99.90;;;;;;5073466;28;20024;-80
2022/11/05 11:54:02;;;;;;;3.90;2.50;;;15.70;99.90;;;;;;5072773;28;20408;-80
2022/11/05 11:56:29;;;;;;;3.70;1.80;;;17.70;99.90;;;;;;5072439;28;20481;-80
2022/11/05 11:59:02;;;;;;;4.93;2.45;;;20.20;99.90;;;;;;5072988;28;20028;-80
2022/11/05 12:02:05;;;;;;;4.28;1.83;;;22.10;99.90;;;;;;5073300;28;20025;-80
2022/11/05 12:04:44;;;;;;;2.58;1.63;;;23.20;99.90;;;;;;5073073;28;20103;-80
2022/11/05 12:07:24;;;;;;;3.42;1.70;;;24.10;99.90;;;;;;5072748;28;20557;-80
2022/11/05 12:10:22;;;;;;;4.35;1.75;;;22.20;99.90;;;;;;5072710;28;20025;-80
2022/11/05 12:12:59;;;;;;;2.78;1.75;;;23.50;99.90;;;;;;4990764;28;20043;-80
2022/11/05 12:15:40;;;;;;;4.18;1.80;;;22.30;99.90;;;;;;4991851;28;20125;-80
2022/11/05 12:18:30;;;;;;;3.90;1.88;;;22.90;99.90;;;;;;4990427;28;20034;-80
2022/11/05 12:21:11;;;;;;;4.60;1.95;;;20.20;99.90;;;;;;4984233;28;20030;-81
2022/11/05 12:23:40;;;;;;;5.30;2.40;;;19.00;99.90;;;;;;4991438;28;20038;-80
2022/11/05 12:26:05;;;;;;;2.28;1.75;;;19.40;99.90;;;;;;4991535;28;20080;-81
2022/11/05 12:28:36;;;;;;;2.92;1.70;;;19.00;99.90;;;;;;4991058;28;20034;-81
2022/11/05 12:31:12;;;;;;;3.92;1.88;;;18.10;99.90;;;;;;4990858;28;20521;-81
2022/11/05 12:33:55;;;;;;;3.03;1.80;;;17.60;99.90;;;;;;5010340;28;20453;-80
2022/11/05 12:36:30;;;;;;;4.25;1.95;;;17.50;99.90;;;;;;5010098;28;20056;-81
2022/11/05 12:39:03;;;;;;;4.55;1.77;;;17.90;99.90;;;;;;5010379;28;20117;-81
2022/11/05 12:41:46;;;;;;;2.00;1.63;;;17.00;99.90;;;;;;5009963;28;20133;-80
2022/11/05 12:44:39;;;;;;;5.63;2.00;;;16.60;99.90;;;;;;5010333;28;20524;-80
2022/11/05 12:47:05;;;;;;;4.13;2.13;;;16.60;99.90;;;;;;5010176;28;20092;-80
2022/11/05 12:49:33;;;;;;;3.72;1.98;;;17.10;99.90;;;;;;5042430;28;20107;-80
2022/11/05 12:52:02;;;;;;;4.35;2.40;;;16.50;99.90;;;;;;5072514;28;20514;-81
2022/11/05 12:54:46;;;;;;;4.03;1.85;;;16.30;99.90;;;;;;5071546;28;20527;-81
2022/11/05 12:57:13;;;;;;;4.57;2.50;;;16.10;99.90;;;;;;5071948;28;20025;-80
2022/11/05 12:59:55;;;;;;;7.25;4.03;;;16.40;99.90;;;;;;5072507;28;20028;-80
2022/11/05 13:02:23;;;;;;;4.65;1.80;;;16.20;99.90;;;;;;5072430;28;20036;-80
2022/11/05 13:04:58;;;;;;;5.13;1.85;;;16.00;99.90;;;;;;5072473;28;20020;-81
2022/11/05 13:07:32;;;;;;;5.97;2.15;;;15.90;99.90;;;;;;5071840;28;20094;-80
2022/11/05 13:10:16;;;;;;;4.28;1.95;;;16.10;99.90;;;;;;5071377;28;20031;-80
2022/11/05 13:12:43;;;;;;;3.50;1.77;;;16.00;99.90;;;;;;5071888;28;20166;-80
2022/11/05 13:15:19;;;;;;;4.60;1.65;;;15.70;99.90;;;;;;5071572;28;20029;-80
2022/11/05 13:17:49;;;;;;;2.75;1.60;;;15.20;99.90;;;;;;5072616;28;20498;-81
2022/11/05 13:20:20;;;;;;;12.52;6.80;;;15.50;99.90;;;;;;5071975;28;20031;-81
2022/11/05 13:22:51;;;;;;;5.05;2.28;;;16.50;99.90;;;;;;5071750;28;20043;-80
2022/11/05 13:25:26;;;;;;;9.10;6.38;;;17.00;99.90;;;;;;5071449;28;20025;-81
2022/11/05 13:28:26;;;;;;;4.00;1.70;;;19.10;99.90;;;;;;5072179;28;20384;-81
2022/11/05 13:30:57;;;;;;;3.03;1.67;;;21.20;99.90;;;;;;5074795;28;20506;-80
2022/11/05 13:33:41;;;;;;;3.75;1.73;;;20.00;99.90;;;;;;5093532;28;20027;-80
2022/11/05 13:39:13;;;;;;;4.75;2.10;;;19.20;99.90;;;;;;5095308;28;20140;-80
2022/11/05 13:41:42;;;;;;;2.38;1.60;;;18.00;99.90;;;;;;5095781;28;20060;-80
2022/11/05 13:44:38;;;;;;;4.43;1.80;;;18.20;99.90;;;;;;5095492;28;20020;-80
2022/11/05 13:47:31;;;;;;;3.40;1.50;;;18.40;99.90;;;;;;5095325;28;20039;-81
2022/11/05 13:50:21;;;;;;;4.28;1.48;;;19.40;99.90;;;;;;5095564;28;20024;-81
2022/11/05 13:53:31;;;;;;;4.25;1.75;;;17.80;99.90;;;;;;5095187;28;20028;-80
2022/11/05 13:56:18;;;;;;;4.13;1.35;;;16.70;99.90;;;;;;4993434;28;20058;-81
2022/11/05 13:59:31;;;;;;;4.10;1.90;;;16.40;99.90;;;;;;4993792;28;20030;-79
2022/11/05 14:02:00;;;;;;;3.60;1.80;;;18.00;99.90;;;;;;4993525;28;20061;-80